createdAt,value
2022-09-24T00:01:44.713Z,12.40
2022-09-24T00:04:12.880Z,11.50
2022-09-24T00:06:42.536Z,10.30
2022-09-24T00:09:11.903Z,10.60
2022-09-24T00:11:40.056Z,12.50
2022-09-24T00:14:08.135Z,9.60
2022-09-24T00:16:36.344Z,10.90
2022-09-24T00:19:05.283Z,10.00
2022-09-24T00:21:34.612Z,12.50
2022-09-24T00:24:04.549Z,11.20
2022-09-24T00:26:50.418Z,10.20
2022-09-24T00:29:22.462Z,10.80
2022-09-24T00:31:51.099Z,9.80
2022-09-24T00:34:19.785Z,9.70
2022-09-24T00:36:48.608Z,9.60
2022-09-24T00:39:17.251Z,10.00
2022-09-24T00:41:49.179Z,9.90
2022-09-24T00:44:36.305Z,8.50
2022-09-24T00:47:05.193Z,10.90
2022-09-24T00:49:32.951Z,10.90
2022-09-24T00:52:00.920Z,12.00
2022-09-24T00:54:29.114Z,10.10
2022-09-24T00:56:58.705Z,12.00
2022-09-24T00:59:27.399Z,8.80
2022-09-24T01:01:57.727Z,10.70
2022-09-24T01:04:27.224Z,9.80
2022-09-24T01:06:56.001Z,10.40
2022-09-24T01:09:25.959Z,9.80
2022-09-24T01:11:59.720Z,9.30
2022-09-24T01:14:33.220Z,11.10
2022-09-24T01:17:00.882Z,11.70
2022-09-24T01:19:52.438Z,12.70
2022-09-24T01:22:26.090Z,12.70
2022-09-24T01:25:08.098Z,12.50
2022-09-24T01:27:39.364Z,12.30
2022-09-24T01:30:10.751Z,13.20
2022-09-24T01:32:41.262Z,11.00
2022-09-24T01:35:27.723Z,14.00
2022-09-24T01:37:58.502Z,10.10
2022-09-24T01:40:27.921Z,10.80
2022-09-24T01:42:57.164Z,16.20
2022-09-24T01:45:28.941Z,10.00
2022-09-24T01:47:56.686Z,11.60
2022-09-24T01:50:24.852Z,10.10
2022-09-24T01:52:56.283Z,10.90
2022-09-24T01:55:25.807Z,10.60
2022-09-24T01:58:00.022Z,11.00
2022-09-24T02:00:28.021Z,10.20
2022-09-24T02:03:07.800Z,11.20
2022-09-24T02:05:41.523Z,10.90
2022-09-24T02:08:12.117Z,12.20
2022-09-24T02:10:59.973Z,11.20
2022-09-24T02:13:29.827Z,12.10
2022-09-24T02:15:59.753Z,14.90
2022-09-24T02:18:29.776Z,16.50
2022-09-24T02:20:58.915Z,15.80
2022-09-24T02:23:28.383Z,14.70
2022-09-24T02:25:58.567Z,17.90
2022-09-24T02:28:26.954Z,16.00
2022-09-24T02:31:04.869Z,12.70
2022-09-24T02:34:06.563Z,15.90
2022-09-24T02:36:35.217Z,13.30
2022-09-24T02:39:03.457Z,11.30
2022-09-24T02:41:31.944Z,12.70
2022-09-24T02:43:59.914Z,12.70
2022-09-24T02:46:28.535Z,10.40
2022-09-24T02:48:56.584Z,12.20
2022-09-24T02:51:24.439Z,12.00
2022-09-24T02:53:52.294Z,12.50
2022-09-24T02:56:19.964Z,13.00
2022-09-24T02:58:48.060Z,13.70
2022-09-24T03:01:15.683Z,13.50
2022-09-24T03:03:43.692Z,14.90
2022-09-24T03:06:13.726Z,15.20
2022-09-24T03:08:42.675Z,15.10
2022-09-24T03:11:15.092Z,14.50
2022-09-24T03:13:45.831Z,12.90
2022-09-24T03:16:13.708Z,10.70
2022-09-24T03:18:41.427Z,13.30
2022-09-24T03:21:11.045Z,13.40
2022-09-24T03:23:38.696Z,12.30
2022-09-24T03:26:06.450Z,12.70
2022-09-24T03:28:34.609Z,15.80
2022-09-24T03:31:02.779Z,17.70
2022-09-24T03:33:35.059Z,15.90
2022-09-24T03:36:04.531Z,15.10
2022-09-24T03:38:32.533Z,14.60
2022-09-24T03:41:00.781Z,12.80
2022-09-24T03:43:29.073Z,14.00
2022-09-24T03:45:56.855Z,11.90
2022-09-24T03:48:25.791Z,11.80
2022-09-24T03:50:53.802Z,11.50
2022-09-24T03:53:22.282Z,13.00
2022-09-24T03:55:54.966Z,10.00
2022-09-24T03:58:23.314Z,9.70
2022-09-24T04:00:54.513Z,9.10
2022-09-24T04:03:22.993Z,9.50
2022-09-24T04:05:51.456Z,8.70
2022-09-24T04:08:19.919Z,9.90
2022-09-24T04:10:49.030Z,10.20
2022-09-24T04:13:17.605Z,8.90
2022-09-24T04:15:45.790Z,9.10
2022-09-24T04:18:13.844Z,10.50
2022-09-24T04:20:42.124Z,12.60
2022-09-24T04:23:10.699Z,14.50
2022-09-24T04:25:40.679Z,14.40
2022-09-24T04:28:09.162Z,12.60
2022-09-24T04:30:38.346Z,13.60
2022-09-24T04:33:06.881Z,12.50
2022-09-24T04:35:38.471Z,11.30
2022-09-24T04:38:06.209Z,11.50
2022-09-24T04:40:33.940Z,14.90
2022-09-24T04:43:02.247Z,11.80
2022-09-24T04:45:30.400Z,9.90
2022-09-24T04:47:58.602Z,11.00
2022-09-24T04:50:27.679Z,10.00
2022-09-24T04:52:56.149Z,11.30
2022-09-24T04:55:24.113Z,13.50
2022-09-24T04:57:51.985Z,12.10
2022-09-24T05:00:21.007Z,12.30
2022-09-24T05:02:56.061Z,11.40
2022-09-24T05:05:24.071Z,13.00
2022-09-24T05:07:51.863Z,14.90
2022-09-24T05:10:19.960Z,12.20
2022-09-24T05:12:48.194Z,11.20
2022-09-24T05:15:16.160Z,13.80
2022-09-24T05:17:44.241Z,10.00
2022-09-24T05:20:12.199Z,10.80
2022-09-24T05:22:44.162Z,11.90
2022-09-24T05:25:13.159Z,13.30
2022-09-24T05:27:47.989Z,11.60
2022-09-24T05:30:16.267Z,11.40
2022-09-24T05:32:44.082Z,10.00
2022-09-24T05:35:12.808Z,10.40
2022-09-24T05:37:40.674Z,12.80
2022-09-24T05:40:27.337Z,11.80
2022-09-24T05:43:00.042Z,11.20
2022-09-24T05:45:29.368Z,12.50
2022-09-24T05:47:57.432Z,11.40
2022-09-24T05:50:25.298Z,11.10
2022-09-24T05:52:53.475Z,11.20
2022-09-24T05:55:21.164Z,12.30
2022-09-24T05:57:49.718Z,13.10
2022-09-24T06:00:17.488Z,12.80
2022-09-24T06:02:45.622Z,12.80
2022-09-24T06:05:13.824Z,13.00
2022-09-24T06:07:41.691Z,12.70
2022-09-24T06:10:10.489Z,13.30
2022-09-24T06:12:38.347Z,14.00
2022-09-24T06:15:06.520Z,13.10
2022-09-24T06:17:34.849Z,12.20
2022-09-24T06:20:02.596Z,13.40
2022-09-24T06:22:30.525Z,14.00
2022-09-24T06:24:58.435Z,15.80
2022-09-24T06:27:29.228Z,14.50
2022-09-24T06:29:57.666Z,14.40
2022-09-24T06:32:25.983Z,15.10
2022-09-24T06:34:58.895Z,15.80
2022-09-24T06:37:27.450Z,17.30
2022-09-24T06:39:55.632Z,15.30
2022-09-24T06:42:23.419Z,14.60
2022-09-24T06:44:51.659Z,15.50
2022-09-24T06:47:19.834Z,15.80
2022-09-24T06:49:50.242Z,13.30
2022-09-24T06:52:17.938Z,16.00
2022-09-24T06:54:45.787Z,13.70
2022-09-24T06:57:13.763Z,16.10
2022-09-24T06:59:41.621Z,15.40
2022-09-24T07:02:10.638Z,13.70
2022-09-24T07:04:48.622Z,13.20
2022-09-24T07:07:36.637Z,15.00
2022-09-24T07:10:08.019Z,14.30
2022-09-24T07:12:36.682Z,15.70
2022-09-24T07:15:04.762Z,14.70
2022-09-24T07:17:34.034Z,17.60
2022-09-24T07:20:02.607Z,17.90
2022-09-24T07:22:30.820Z,14.70
2022-09-24T07:24:58.453Z,16.90
2022-09-24T07:27:26.277Z,17.10
2022-09-24T07:29:55.138Z,15.40
2022-09-24T07:32:28.965Z,13.60
2022-09-24T07:34:57.624Z,13.20
2022-09-24T07:37:25.897Z,15.00
2022-09-24T07:39:53.866Z,13.10
2022-09-24T07:42:22.365Z,12.40
2022-09-24T07:44:50.836Z,12.90
2022-09-24T07:47:18.896Z,17.00
2022-09-24T07:49:46.661Z,13.60
2022-09-24T07:52:14.507Z,13.60
2022-09-24T07:54:42.399Z,13.00
2022-09-24T07:57:13.062Z,13.50
2022-09-24T07:59:41.720Z,13.60
2022-09-24T08:02:17.204Z,13.70
2022-09-24T08:04:45.323Z,12.00
2022-09-24T08:07:13.341Z,13.70
2022-09-24T08:09:41.179Z,11.70
2022-09-24T08:12:09.739Z,12.00
2022-09-24T08:14:37.416Z,12.20
2022-09-24T08:17:05.345Z,12.20
2022-09-24T08:19:34.163Z,13.20
2022-09-24T08:22:02.650Z,14.00
2022-09-24T08:24:32.143Z,13.20
2022-09-24T08:27:01.475Z,14.30
2022-09-24T08:29:29.206Z,13.10
2022-09-24T08:31:57.377Z,11.50
2022-09-24T08:34:25.346Z,11.70
2022-09-24T08:36:53.402Z,13.10
2022-09-24T08:39:21.693Z,13.00
2022-09-24T08:42:01.327Z,13.40
2022-09-24T08:44:53.907Z,11.30
2022-09-24T08:47:44.760Z,12.70
2022-09-24T08:50:16.853Z,9.60
2022-09-24T08:52:54.752Z,11.00
2022-09-24T08:56:00.747Z,11.20
2022-09-24T08:58:44.792Z,12.90
2022-09-24T09:01:13.397Z,12.50
2022-09-24T09:04:00.353Z,12.20
2022-09-24T09:06:54.162Z,12.80
2022-09-24T09:09:23.838Z,12.80
2022-09-24T09:11:53.230Z,11.20
2022-09-24T09:14:26.969Z,12.50
2022-09-24T09:17:21.431Z,12.00
2022-09-24T09:19:55.337Z,11.70
2022-09-24T09:22:25.053Z,10.50
2022-09-24T09:24:53.737Z,9.80
2022-09-24T09:27:22.008Z,10.00
2022-09-24T09:29:51.668Z,11.30
2022-09-24T09:32:22.452Z,11.70
2022-09-24T09:35:19.692Z,10.00
2022-09-24T09:37:58.853Z,11.00
2022-09-24T09:40:32.114Z,11.90
2022-09-24T09:43:04.717Z,10.30
2022-09-24T09:45:52.131Z,11.10
2022-09-24T09:48:21.591Z,9.60
2022-09-24T09:50:50.988Z,13.00
2022-09-24T09:53:28.426Z,10.50
2022-09-24T09:55:58.033Z,10.70
2022-09-24T09:58:27.135Z,10.90
2022-09-24T10:01:06.062Z,9.60
2022-09-24T10:03:36.203Z,10.30
2022-09-24T10:06:06.289Z,12.30
2022-09-24T10:08:34.051Z,11.00
2022-09-24T10:11:03.557Z,12.70
2022-09-24T10:13:32.448Z,10.90
2022-09-24T10:16:09.156Z,10.20
2022-09-24T10:18:50.539Z,10.60
2022-09-24T10:21:44.605Z,10.70
2022-09-24T10:24:16.703Z,9.40
2022-09-24T10:26:45.819Z,11.50
2022-09-24T10:29:35.432Z,11.10
2022-09-24T10:32:05.269Z,11.90
2022-09-24T10:34:33.718Z,10.80
2022-09-24T10:37:08.705Z,11.20
2022-09-24T10:42:24.445Z,10.50
2022-09-24T10:44:54.107Z,11.10
2022-09-24T10:47:26.727Z,10.80
2022-09-24T10:50:08.835Z,11.30
2022-09-24T10:52:36.593Z,10.80
2022-09-24T10:55:04.373Z,11.40
2022-09-24T10:57:41.952Z,10.90
2022-09-24T11:00:23.355Z,11.00
2022-09-24T11:02:51.323Z,11.20
2022-09-24T11:05:21.446Z,11.50
2022-09-24T11:07:50.422Z,26.00
2022-09-24T11:10:21.367Z,10.80
2022-09-24T11:12:58.434Z,11.10
2022-09-24T11:15:29.176Z,9.70
2022-09-24T11:18:29.310Z,10.40
2022-09-24T11:21:00.022Z,10.10
2022-09-24T11:23:40.182Z,9.00
2022-09-24T11:26:22.875Z,8.70
2022-09-24T11:29:09.612Z,9.00
2022-09-24T11:31:42.723Z,10.60
2022-09-24T11:34:13.931Z,9.80
2022-09-24T11:36:41.963Z,9.20
2022-09-24T11:39:29.327Z,8.20
2022-09-24T11:41:57.906Z,8.00
2022-09-24T11:44:37.962Z,8.00
2022-09-24T11:47:15.452Z,9.20
2022-09-24T11:49:43.337Z,12.80
2022-09-24T11:52:13.845Z,8.40
2022-09-24T11:55:01.074Z,9.00
2022-09-24T11:57:31.810Z,15.70
2022-09-24T12:00:08.259Z,9.90
2022-09-24T12:02:40.625Z,8.30
2022-09-24T12:05:27.548Z,6.90
2022-09-24T12:08:04.016Z,8.40
2022-09-24T12:10:35.364Z,9.10
2022-09-24T12:13:12.534Z,8.70
2022-09-24T12:15:56.456Z,8.20
2022-09-24T12:18:26.412Z,8.30
2022-09-24T12:21:02.771Z,7.30
2022-09-24T12:23:32.400Z,6.30
2022-09-24T12:26:03.223Z,6.00
2022-09-24T12:28:54.402Z,6.00
2022-09-24T12:31:41.388Z,5.80
2022-09-24T12:34:19.543Z,6.40
2022-09-24T12:36:57.171Z,6.60
2022-09-24T12:39:31.266Z,5.60
2022-09-24T12:42:01.887Z,5.30
2022-09-24T12:44:37.333Z,5.90
2022-09-24T12:47:07.753Z,7.50
2022-09-24T12:49:37.572Z,5.70
2022-09-24T12:52:25.924Z,5.20
2022-09-24T12:54:56.951Z,5.30
2022-09-24T12:57:26.599Z,6.40
2022-09-24T13:00:01.588Z,7.10
2022-09-24T13:02:34.043Z,5.80
2022-09-24T13:05:02.868Z,5.60
2022-09-24T13:07:35.248Z,6.60
2022-09-24T13:10:18.658Z,4.80
2022-09-24T13:12:47.404Z,7.40
2022-09-24T13:15:35.780Z,5.50
2022-09-24T13:18:04.586Z,5.90
2022-09-24T13:20:33.770Z,7.20
2022-09-24T13:23:22.226Z,6.70
2022-09-24T13:25:57.876Z,5.40
2022-09-24T13:28:35.740Z,5.10
2022-09-24T13:31:21.712Z,6.60
2022-09-24T13:33:51.586Z,24.40
2022-09-24T13:36:22.811Z,16.00
2022-09-24T13:39:01.156Z,9.30
2022-09-24T13:41:41.593Z,7.50
2022-09-24T13:44:16.421Z,7.30
2022-09-24T13:46:45.619Z,6.70
2022-09-24T13:49:18.842Z,9.50
2022-09-24T13:51:51.592Z,7.10
2022-09-24T13:54:19.458Z,6.20
2022-09-24T13:57:06.269Z,5.80
2022-09-24T13:59:34.031Z,5.40
2022-09-24T14:02:02.335Z,5.90
2022-09-24T14:04:32.531Z,6.30
2022-09-24T14:07:02.801Z,5.40
2022-09-24T14:09:35.335Z,6.60
2022-09-24T14:12:17.636Z,4.80
2022-09-24T14:14:47.622Z,10.10
2022-09-24T14:17:17.564Z,7.40
2022-09-24T14:19:48.087Z,17.50
2022-09-24T14:22:28.192Z,12.00
2022-09-24T14:25:00.226Z,9.60
2022-09-24T14:27:29.298Z,11.70
2022-09-24T14:29:59.550Z,8.40
2022-09-24T14:32:35.157Z,6.10
2022-09-24T14:35:08.068Z,7.50
2022-09-24T14:37:38.441Z,5.40
2022-09-24T14:40:14.282Z,4.60
2022-09-24T14:42:46.686Z,4.90
2022-09-24T14:45:20.908Z,4.70
2022-09-24T14:47:59.233Z,9.20
2022-09-24T14:50:47.793Z,7.60
2022-09-24T14:53:27.240Z,6.30
2022-09-24T14:55:55.297Z,7.00
2022-09-24T14:58:26.235Z,7.20
2022-09-24T15:00:55.832Z,5.30
2022-09-24T15:03:38.147Z,5.80
2022-09-24T15:06:08.034Z,6.60
2022-09-24T15:08:36.329Z,10.50
2022-09-24T15:11:05.424Z,14.00
2022-09-24T15:13:35.027Z,7.00
2022-09-24T15:16:21.338Z,5.60
2022-09-24T15:18:55.850Z,5.70
2022-09-24T15:21:23.927Z,5.00
2022-09-24T15:23:52.302Z,4.40
2022-09-24T15:26:20.573Z,6.10
2022-09-24T15:28:49.155Z,6.20
2022-09-24T15:31:17.819Z,4.30
2022-09-24T15:33:46.015Z,6.60
2022-09-24T15:36:15.352Z,4.30
2022-09-24T15:38:43.598Z,4.10
2022-09-24T15:41:11.660Z,4.70
2022-09-24T15:43:39.734Z,4.40
2022-09-24T15:46:08.059Z,4.80
2022-09-24T15:48:36.491Z,4.40
2022-09-24T15:51:10.135Z,3.60
2022-09-24T15:53:42.607Z,5.30
2022-09-24T15:56:11.453Z,5.00
2022-09-24T15:58:39.698Z,3.80
2022-09-24T16:01:11.240Z,4.90
2022-09-24T16:03:40.682Z,5.70
2022-09-24T16:06:10.298Z,4.80
2022-09-24T16:08:38.562Z,4.80
2022-09-24T16:11:09.262Z,4.70
2022-09-24T16:13:37.688Z,4.20
2022-09-24T16:16:06.617Z,5.30
2022-09-24T16:18:35.714Z,5.10
2022-09-24T16:21:09.994Z,5.90
2022-09-24T16:23:38.264Z,7.40
2022-09-24T16:26:06.635Z,10.80
2022-09-24T16:28:36.050Z,6.10
2022-09-24T16:31:07.141Z,8.20
2022-09-24T16:33:39.041Z,6.70
2022-09-24T16:36:08.234Z,5.90
2022-09-24T16:38:36.817Z,7.30
2022-09-24T16:41:05.603Z,4.60
2022-09-24T16:43:33.879Z,7.10
2022-09-24T16:46:06.784Z,6.50
2022-09-24T16:48:36.163Z,7.20
2022-09-24T16:51:09.045Z,6.80
2022-09-24T16:53:40.916Z,7.70
2022-09-24T16:56:13.495Z,9.70
2022-09-24T16:58:46.558Z,8.20
2022-09-24T17:01:17.132Z,8.30
2022-09-24T17:03:50.306Z,10.40
2022-09-24T17:06:28.710Z,11.30
2022-09-24T17:09:16.259Z,10.60
2022-09-24T17:11:49.747Z,8.50
2022-09-24T17:14:18.106Z,10.00
2022-09-24T17:16:47.400Z,8.90
2022-09-24T17:19:15.992Z,8.40
2022-09-24T17:21:46.172Z,8.10
2022-09-24T17:24:17.805Z,9.00
2022-09-24T17:26:49.725Z,10.60
2022-09-24T17:29:22.646Z,9.40
2022-09-24T17:31:50.584Z,8.90
2022-09-24T17:34:19.060Z,9.70
2022-09-24T17:36:47.026Z,7.60
2022-09-24T17:39:15.712Z,7.30
2022-09-24T17:41:43.593Z,9.00
2022-09-24T17:44:12.882Z,9.90
2022-09-24T17:46:43.815Z,9.80
2022-09-24T17:49:12.822Z,8.80
2022-09-24T17:51:40.875Z,10.20
2022-09-24T17:54:11.101Z,8.70
2022-09-24T17:56:40.771Z,8.60
2022-09-24T17:59:09.805Z,10.60
2022-09-24T18:01:39.687Z,8.70
2022-09-24T18:04:13.420Z,9.20
2022-09-24T18:06:44.888Z,8.70
2022-09-24T18:09:13.967Z,8.30
2022-09-24T18:11:44.624Z,9.00
2022-09-24T18:14:15.021Z,9.40
2022-09-24T18:16:43.810Z,7.30
2022-09-24T18:19:13.637Z,8.40
2022-09-24T18:21:41.904Z,7.90
2022-09-24T18:24:13.450Z,6.70
2022-09-24T18:26:42.323Z,7.40
2022-09-24T18:29:17.370Z,6.80
2022-09-24T18:31:45.649Z,7.90
2022-09-24T18:34:16.194Z,10.00
2022-09-24T18:36:45.579Z,8.00
2022-09-24T18:39:24.688Z,7.40
2022-09-24T18:41:54.321Z,10.00
2022-09-24T18:44:22.702Z,11.60
2022-09-24T18:46:50.933Z,12.00
2022-09-24T18:49:20.171Z,11.20
2022-09-24T18:51:52.504Z,8.80
2022-09-24T18:54:21.585Z,8.50
2022-09-24T18:56:51.431Z,8.20
2022-09-24T18:59:22.418Z,8.30
2022-09-24T19:01:51.235Z,9.10
2022-09-24T19:04:19.853Z,7.20
2022-09-24T19:06:50.382Z,14.40
2022-09-24T19:09:20.503Z,8.30
2022-09-24T19:11:49.615Z,7.60
2022-09-24T19:14:19.409Z,7.80
2022-09-24T19:16:48.734Z,7.90
2022-09-24T19:19:16.795Z,10.40
2022-09-24T19:21:47.833Z,8.90
2022-09-24T19:24:17.635Z,14.30
2022-09-24T19:26:49.965Z,13.60
2022-09-24T19:29:19.608Z,14.00
2022-09-24T19:31:49.320Z,12.40
2022-09-24T19:34:17.285Z,12.00
2022-09-24T19:36:46.079Z,12.40
2022-09-24T19:39:16.031Z,15.70
2022-09-24T19:41:44.983Z,16.70
2022-09-24T19:44:16.863Z,16.50
2022-09-24T19:46:45.476Z,13.90
2022-09-24T19:49:15.319Z,16.90
2022-09-24T19:51:44.122Z,17.10
2022-09-24T19:54:12.842Z,19.30
2022-09-24T19:56:41.719Z,17.20
2022-09-24T19:59:10.281Z,26.90
2022-09-24T20:01:40.436Z,40.20
2022-09-24T20:04:10.256Z,31.50
2022-09-24T20:06:40.436Z,32.00
2022-09-24T20:09:09.021Z,30.80
2022-09-24T20:11:38.008Z,28.70
2022-09-24T20:14:11.814Z,33.60
2022-09-24T20:16:43.066Z,24.50
2022-09-24T20:19:11.753Z,25.20
2022-09-24T20:21:39.615Z,23.60
2022-09-24T20:24:09.010Z,20.30
2022-09-24T20:26:56.035Z,17.00
2022-09-24T20:29:24.420Z,18.30
2022-09-24T20:31:53.910Z,13.50
2022-09-24T20:34:25.075Z,13.70
2022-09-24T20:36:53.684Z,13.50
2022-09-24T20:39:22.542Z,13.00
2022-09-24T20:41:51.325Z,12.90
2022-09-24T20:44:20.611Z,14.90
2022-09-24T20:46:49.065Z,19.40
2022-09-24T20:49:22.620Z,15.00
2022-09-24T20:51:56.703Z,14.70
2022-09-24T20:54:27.035Z,16.10
2022-09-24T20:56:54.999Z,16.70
2022-09-24T20:59:25.178Z,15.70
2022-09-24T21:01:53.617Z,13.20
2022-09-24T21:04:22.575Z,13.70
2022-09-24T21:06:51.179Z,14.30
2022-09-24T21:09:19.352Z,16.20
2022-09-24T21:11:48.699Z,16.30
2022-09-24T21:14:18.143Z,15.90
2022-09-24T21:16:48.036Z,16.00
2022-09-24T21:19:16.340Z,17.20
2022-09-24T21:21:44.303Z,16.80
2022-09-24T21:24:14.464Z,17.50
2022-09-24T21:26:43.791Z,15.80
2022-09-24T21:29:20.884Z,15.10
2022-09-24T21:31:49.180Z,14.60
2022-09-24T21:34:20.365Z,14.30
2022-09-24T21:36:48.702Z,13.80
2022-09-24T21:39:17.903Z,13.90
2022-09-24T21:41:48.182Z,13.00
2022-09-24T21:44:17.963Z,12.10
2022-09-24T21:46:46.320Z,13.70
2022-09-24T21:49:14.995Z,15.20
2022-09-24T21:51:43.684Z,13.70
2022-09-24T21:54:17.629Z,12.30
2022-09-24T21:56:46.286Z,13.60
2022-09-24T21:59:33.700Z,13.80
2022-09-24T22:02:02.490Z,14.00
2022-09-24T22:04:32.610Z,13.70
2022-09-24T22:07:00.505Z,13.80
2022-09-24T22:09:29.258Z,13.80
2022-09-24T22:12:00.485Z,13.40
2022-09-24T22:14:28.609Z,14.80
2022-09-24T22:16:57.005Z,13.80
2022-09-24T22:19:25.128Z,12.70
2022-09-24T22:21:52.993Z,14.90
2022-09-24T22:24:20.926Z,20.80
2022-09-24T22:26:49.238Z,14.00
2022-09-24T22:29:16.925Z,15.40
2022-09-24T22:31:45.557Z,16.40
2022-09-24T22:34:32.411Z,14.90
2022-09-24T22:37:03.737Z,15.70
2022-09-24T22:39:31.711Z,20.60
2022-09-24T22:41:59.574Z,23.50
2022-09-24T22:44:29.266Z,19.60
2022-09-24T22:46:59.101Z,23.70
2022-09-24T22:49:27.069Z,21.30
2022-09-24T22:51:54.957Z,24.70
2022-09-24T22:54:24.749Z,23.60
2022-09-24T22:56:52.751Z,29.90
2022-09-24T22:59:20.573Z,27.70
2022-09-24T23:01:48.468Z,20.70
2022-09-24T23:04:16.433Z,19.00
2022-09-24T23:06:44.488Z,20.30
2022-09-24T23:09:12.456Z,19.70
2022-09-24T23:11:40.619Z,20.00
2022-09-24T23:14:12.944Z,20.70
2022-09-24T23:16:42.771Z,22.40
2022-09-24T23:19:17.989Z,20.50
2022-09-24T23:21:46.522Z,23.60
2022-09-24T23:24:15.822Z,24.30
2022-09-24T23:26:44.518Z,22.00
2022-09-24T23:29:13.079Z,21.20
2022-09-24T23:31:40.683Z,22.00
2022-09-24T23:34:08.725Z,22.40
2022-09-24T23:36:37.424Z,20.90
2022-09-24T23:39:05.793Z,20.90
2022-09-24T23:41:33.753Z,22.50
2022-09-24T23:44:01.925Z,19.60
2022-09-24T23:46:30.865Z,21.40
2022-09-24T23:48:58.557Z,19.80
2022-09-24T23:51:26.856Z,21.10
2022-09-24T23:53:54.551Z,19.90
2022-09-24T23:56:22.742Z,20.60
2022-09-24T23:58:50.301Z,20.10
